sensor_id;sensor_type;location;lat;lon;timestamp;temperature;humidity
9527;DHT22;4802;51.494;6.770;2022-08-03T00:00:40;23.70;1.00
9527;DHT22;4802;51.494;6.770;2022-08-03T00:03:10;23.70;1.00
9527;DHT22;4802;51.494;6.770;2022-08-03T00:05:41;23.50;1.00
9527;DHT22;4802;51.494;6.770;2022-08-03T00:08:30;23.60;1.00
9527;DHT22;4802;51.494;6.770;2022-08-03T00:11:06;23.30;1.00
9527;DHT22;4802;51.494;6.770;2022-08-03T00:13:45;23.30;1.00
9527;DHT22;4802;51.494;6.770;2022-08-03T00:16:15;23.20;1.00
9527;DHT22;4802;51.494;6.770;2022-08-03T00:18:47;23.10;1.00
9527;DHT22;4802;51.494;6.770;2022-08-03T00:21:23;23.00;1.00
9527;DHT22;4802;51.494;6.770;2022-08-03T00:23:54;23.00;1.00
9527;DHT22;4802;51.494;6.770;2022-08-03T00:26:23;23.00;1.00
9527;DHT22;4802;51.494;6.770;2022-08-03T00:28:53;22.50;1.00
9527;DHT22;4802;51.494;6.770;2022-08-03T00:31:24;22.90;1.00
9527;DHT22;4802;51.494;6.770;2022-08-03T00:34:15;22.90;1.00
9527;DHT22;4802;51.494;6.770;2022-08-03T00:37:04;22.80;1.00
9527;DHT22;4802;51.494;6.770;2022-08-03T00:39:33;22.70;1.00
9527;DHT22;4802;51.494;6.770;2022-08-03T00:42:07;22.70;1.00
9527;DHT22;4802;51.494;6.770;2022-08-03T00:44:44;22.60;1.00
9527;DHT22;4802;51.494;6.770;2022-08-03T00:47:13;22.60;1.00
9527;DHT22;4802;51.494;6.770;2022-08-03T00:49:45;22.60;1.00
9527;DHT22;4802;51.494;6.770;2022-08-03T00:52:16;22.60;1.00
9527;DHT22;4802;51.494;6.770;2022-08-03T00:54:48;22.50;1.00
9527;DHT22;4802;51.494;6.770;2022-08-03T00:57:18;22.50;1.00
9527;DHT22;4802;51.494;6.770;2022-08-03T00:59:47;22.40;1.00
9527;DHT22;4802;51.494;6.770;2022-08-03T01:02:16;22.40;1.00
9527;DHT22;4802;51.494;6.770;2022-08-03T01:04:44;22.30;1.00
9527;DHT22;4802;51.494;6.770;2022-08-03T01:07:20;22.40;1.00
9527;DHT22;4802;51.494;6.770;2022-08-03T01:09:54;22.40;1.00
9527;DHT22;4802;51.494;6.770;2022-08-03T01:12:34;22.70;1.00
9527;DHT22;4802;51.494;6.770;2022-08-03T01:15:09;22.70;1.00
9527;DHT22;4802;51.494;6.770;2022-08-03T01:17:46;22.80;1.00
9527;DHT22;4802;51.494;6.770;2022-08-03T01:20:20;22.90;1.00
9527;DHT22;4802;51.494;6.770;2022-08-03T01:23:10;22.90;1.00
9527;DHT22;4802;51.494;6.770;2022-08-03T01:26:02;22.80;1.00
9527;DHT22;4802;51.494;6.770;2022-08-03T01:28:48;22.80;1.00
9527;DHT22;4802;51.494;6.770;2022-08-03T01:31:31;22.90;1.00
9527;DHT22;4802;51.494;6.770;2022-08-03T01:34:26;23.00;1.00
9527;DHT22;4802;51.494;6.770;2022-08-03T01:36:57;23.00;1.00
9527;DHT22;4802;51.494;6.770;2022-08-03T01:39:28;23.00;1.00
9527;DHT22;4802;51.494;6.770;2022-08-03T01:42:02;22.90;1.00
9527;DHT22;4802;51.494;6.770;2022-08-03T01:44:36;22.90;1.00
9527;DHT22;4802;51.494;6.770;2022-08-03T01:47:07;22.80;1.00
9527;DHT22;4802;51.494;6.770;2022-08-03T01:49:39;22.80;1.00
9527;DHT22;4802;51.494;6.770;2022-08-03T01:52:13;22.90;1.00
9527;DHT22;4802;51.494;6.770;2022-08-03T01:54:51;22.90;1.00
9527;DHT22;4802;51.494;6.770;2022-08-03T01:57:21;22.90;1.00
9527;DHT22;4802;51.494;6.770;2022-08-03T01:59:51;23.00;1.00
9527;DHT22;4802;51.494;6.770;2022-08-03T02:02:24;23.00;1.00
9527;DHT22;4802;51.494;6.770;2022-08-03T02:05:00;23.00;1.00
9527;DHT22;4802;51.494;6.770;2022-08-03T02:07:31;23.00;1.00
9527;DHT22;4802;51.494;6.770;2022-08-03T02:10:03;22.90;1.00
9527;DHT22;4802;51.494;6.770;2022-08-03T02:12:33;22.80;1.00
9527;DHT22;4802;51.494;6.770;2022-08-03T02:15:06;22.80;1.00
9527;DHT22;4802;51.494;6.770;2022-08-03T02:17:37;22.80;1.00
9527;DHT22;4802;51.494;6.770;2022-08-03T02:20:09;22.80;1.00
9527;DHT22;4802;51.494;6.770;2022-08-03T02:22:40;22.80;1.00
9527;DHT22;4802;51.494;6.770;2022-08-03T02:25:10;22.70;1.00
9527;DHT22;4802;51.494;6.770;2022-08-03T02:27:45;22.70;1.00
9527;DHT22;4802;51.494;6.770;2022-08-03T02:30:17;22.70;1.00
9527;DHT22;4802;51.494;6.770;2022-08-03T02:32:54;22.70;1.00
9527;DHT22;4802;51.494;6.770;2022-08-03T02:35:25;22.70;1.00
9527;DHT22;4802;51.494;6.770;2022-08-03T02:37:58;22.70;1.00
9527;DHT22;4802;51.494;6.770;2022-08-03T02:40:36;22.80;1.00
9527;DHT22;4802;51.494;6.770;2022-08-03T02:43:09;22.70;1.00
9527;DHT22;4802;51.494;6.770;2022-08-03T02:45:43;22.70;1.00
9527;DHT22;4802;51.494;6.770;2022-08-03T02:48:17;22.60;1.00
9527;DHT22;4802;51.494;6.770;2022-08-03T02:50:51;22.70;1.00
9527;DHT22;4802;51.494;6.770;2022-08-03T02:53:21;22.60;1.00
9527;DHT22;4802;51.494;6.770;2022-08-03T02:55:51;23.00;1.00
9527;DHT22;4802;51.494;6.770;2022-08-03T02:58:22;22.60;1.00
9527;DHT22;4802;51.494;6.770;2022-08-03T03:00:53;22.60;1.00
9527;DHT22;4802;51.494;6.770;2022-08-03T03:03:24;22.60;1.00
9527;DHT22;4802;51.494;6.770;2022-08-03T03:05:57;22.50;1.00
9527;DHT22;4802;51.494;6.770;2022-08-03T03:08:32;22.40;1.00
9527;DHT22;4802;51.494;6.770;2022-08-03T03:11:04;22.40;1.00
9527;DHT22;4802;51.494;6.770;2022-08-03T03:13:35;22.30;1.00
9527;DHT22;4802;51.494;6.770;2022-08-03T03:16:05;22.40;1.00
9527;DHT22;4802;51.494;6.770;2022-08-03T03:18:37;22.30;1.00
9527;DHT22;4802;51.494;6.770;2022-08-03T03:21:07;22.40;1.00
9527;DHT22;4802;51.494;6.770;2022-08-03T03:23:38;22.20;1.00
9527;DHT22;4802;51.494;6.770;2022-08-03T03:26:08;22.50;1.00
9527;DHT22;4802;51.494;6.770;2022-08-03T03:28:37;22.50;1.00
9527;DHT22;4802;51.494;6.770;2022-08-03T03:31:06;22.50;1.00
9527;DHT22;4802;51.494;6.770;2022-08-03T03:33:37;22.40;1.00
9527;DHT22;4802;51.494;6.770;2022-08-03T03:36:06;22.50;1.00
9527;DHT22;4802;51.494;6.770;2022-08-03T03:38:36;22.50;1.00
9527;DHT22;4802;51.494;6.770;2022-08-03T03:41:04;22.40;1.00
9527;DHT22;4802;51.494;6.770;2022-08-03T03:43:33;22.40;1.00
9527;DHT22;4802;51.494;6.770;2022-08-03T03:46:02;22.40;1.00
9527;DHT22;4802;51.494;6.770;2022-08-03T03:48:32;22.40;1.00
9527;DHT22;4802;51.494;6.770;2022-08-03T03:51:02;22.40;1.00
9527;DHT22;4802;51.494;6.770;2022-08-03T03:53:31;22.30;1.00
9527;DHT22;4802;51.494;6.770;2022-08-03T03:56:00;22.30;1.00
9527;DHT22;4802;51.494;6.770;2022-08-03T03:58:30;22.40;1.00
9527;DHT22;4802;51.494;6.770;2022-08-03T04:00:59;22.30;1.00
9527;DHT22;4802;51.494;6.770;2022-08-03T04:03:28;22.30;1.00
9527;DHT22;4802;51.494;6.770;2022-08-03T04:05:58;22.30;1.00
9527;DHT22;4802;51.494;6.770;2022-08-03T04:08:45;22.20;1.00
9527;DHT22;4802;51.494;6.770;2022-08-03T04:11:44;22.10;1.00
9527;DHT22;4802;51.494;6.770;2022-08-03T04:14:18;22.10;1.00
9527;DHT22;4802;51.494;6.770;2022-08-03T04:16:50;22.10;1.00
9527;DHT22;4802;51.494;6.770;2022-08-03T04:19:25;22.10;1.00
9527;DHT22;4802;51.494;6.770;2022-08-03T04:21:56;22.10;1.00
9527;DHT22;4802;51.494;6.770;2022-08-03T04:24:38;22.20;1.00
9527;DHT22;4802;51.494;6.770;2022-08-03T04:27:11;22.30;1.00
9527;DHT22;4802;51.494;6.770;2022-08-03T04:29:45;22.30;1.00
9527;DHT22;4802;51.494;6.770;2022-08-03T04:32:17;22.30;1.00
9527;DHT22;4802;51.494;6.770;2022-08-03T04:34:46;22.40;1.00
9527;DHT22;4802;51.494;6.770;2022-08-03T04:37:42;22.50;1.00
9527;DHT22;4802;51.494;6.770;2022-08-03T04:40:16;22.60;1.00
9527;DHT22;4802;51.494;6.770;2022-08-03T04:42:49;22.60;1.00
9527;DHT22;4802;51.494;6.770;2022-08-03T04:45:22;22.70;1.00
9527;DHT22;4802;51.494;6.770;2022-08-03T04:47:55;23.00;1.00
9527;DHT22;4802;51.494;6.770;2022-08-03T04:50:29;23.80;1.00
9527;DHT22;4802;51.494;6.770;2022-08-03T04:52:58;24.70;1.00
9527;DHT22;4802;51.494;6.770;2022-08-03T04:55:30;25.30;1.00
9527;DHT22;4802;51.494;6.770;2022-08-03T04:58:00;25.50;1.00
9527;DHT22;4802;51.494;6.770;2022-08-03T05:00:29;26.00;1.00
9527;DHT22;4802;51.494;6.770;2022-08-03T05:02:58;26.30;1.00
9527;DHT22;4802;51.494;6.770;2022-08-03T05:05:27;26.50;1.00
9527;DHT22;4802;51.494;6.770;2022-08-03T05:08:16;26.90;1.00
9527;DHT22;4802;51.494;6.770;2022-08-03T05:10:56;27.10;1.00
9527;DHT22;4802;51.494;6.770;2022-08-03T05:13:25;27.40;1.00
9527;DHT22;4802;51.494;6.770;2022-08-03T05:15:54;28.00;1.00
9527;DHT22;4802;51.494;6.770;2022-08-03T05:18:23;28.10;1.00
9527;DHT22;4802;51.494;6.770;2022-08-03T05:20:52;28.60;1.00
9527;DHT22;4802;51.494;6.770;2022-08-03T05:23:21;29.30;1.00
9527;DHT22;4802;51.494;6.770;2022-08-03T05:25:50;29.90;1.00
9527;DHT22;4802;51.494;6.770;2022-08-03T05:28:20;30.00;1.00
9527;DHT22;4802;51.494;6.770;2022-08-03T05:30:49;30.40;1.00
9527;DHT22;4802;51.494;6.770;2022-08-03T05:33:18;30.20;1.00
9527;DHT22;4802;51.494;6.770;2022-08-03T05:35:47;30.60;1.00
9527;DHT22;4802;51.494;6.770;2022-08-03T05:38:29;30.90;1.00
9527;DHT22;4802;51.494;6.770;2022-08-03T05:41:02;31.20;1.00
9527;DHT22;4802;51.494;6.770;2022-08-03T05:43:52;31.00;1.00
9527;DHT22;4802;51.494;6.770;2022-08-03T05:46:21;31.10;1.00
9527;DHT22;4802;51.494;6.770;2022-08-03T05:48:50;31.30;1.00
9527;DHT22;4802;51.494;6.770;2022-08-03T05:51:19;31.60;1.00
9527;DHT22;4802;51.494;6.770;2022-08-03T05:53:48;31.60;1.00
9527;DHT22;4802;51.494;6.770;2022-08-03T05:56:21;31.60;1.00
9527;DHT22;4802;51.494;6.770;2022-08-03T05:58:53;31.70;1.00
9527;DHT22;4802;51.494;6.770;2022-08-03T06:01:22;31.70;1.00
9527;DHT22;4802;51.494;6.770;2022-08-03T06:03:51;31.50;1.00
9527;DHT22;4802;51.494;6.770;2022-08-03T06:06:20;31.70;1.00
9527;DHT22;4802;51.494;6.770;2022-08-03T06:08:49;31.80;1.00
9527;DHT22;4802;51.494;6.770;2022-08-03T06:11:18;32.10;1.00
9527;DHT22;4802;51.494;6.770;2022-08-03T06:13:49;32.20;1.00
9527;DHT22;4802;51.494;6.770;2022-08-03T06:16:22;32.30;1.00
9527;DHT22;4802;51.494;6.770;2022-08-03T06:18:51;32.50;1.00
9527;DHT22;4802;51.494;6.770;2022-08-03T06:21:20;32.90;1.00
9527;DHT22;4802;51.494;6.770;2022-08-03T06:23:53;33.20;1.00
9527;DHT22;4802;51.494;6.770;2022-08-03T06:26:23;33.30;1.00
9527;DHT22;4802;51.494;6.770;2022-08-03T06:28:52;33.60;1.00
9527;DHT22;4802;51.494;6.770;2022-08-03T06:31:26;33.90;1.00
9527;DHT22;4802;51.494;6.770;2022-08-03T06:34:03;34.00;1.00
9527;DHT22;4802;51.494;6.770;2022-08-03T06:36:55;34.00;1.00
9527;DHT22;4802;51.494;6.770;2022-08-03T06:39:28;34.40;1.00
9527;DHT22;4802;51.494;6.770;2022-08-03T06:42:00;34.40;1.00
9527;DHT22;4802;51.494;6.770;2022-08-03T06:44:35;34.70;1.00
9527;DHT22;4802;51.494;6.770;2022-08-03T06:47:06;34.50;1.00
9527;DHT22;4802;51.494;6.770;2022-08-03T06:49:36;34.90;1.00
9527;DHT22;4802;51.494;6.770;2022-08-03T06:52:05;35.00;1.00
9527;DHT22;4802;51.494;6.770;2022-08-03T06:54:35;35.40;1.00
9527;DHT22;4802;51.494;6.770;2022-08-03T06:57:04;35.50;1.00
9527;DHT22;4802;51.494;6.770;2022-08-03T06:59:34;35.20;1.00
9527;DHT22;4802;51.494;6.770;2022-08-03T07:02:25;35.00;1.00
9527;DHT22;4802;51.494;6.770;2022-08-03T07:04:55;35.40;1.00
9527;DHT22;4802;51.494;6.770;2022-08-03T07:07:24;35.70;1.00
9527;DHT22;4802;51.494;6.770;2022-08-03T07:09:57;35.50;1.00
9527;DHT22;4802;51.494;6.770;2022-08-03T07:12:29;36.20;1.00
9527;DHT22;4802;51.494;6.770;2022-08-03T07:14:59;36.40;1.00
9527;DHT22;4802;51.494;6.770;2022-08-03T07:17:33;36.20;1.00
9527;DHT22;4802;51.494;6.770;2022-08-03T07:20:04;36.40;1.00
9527;DHT22;4802;51.494;6.770;2022-08-03T07:22:34;36.60;1.00
9527;DHT22;4802;51.494;6.770;2022-08-03T07:25:04;37.00;1.00
9527;DHT22;4802;51.494;6.770;2022-08-03T07:27:34;37.00;1.00
9527;DHT22;4802;51.494;6.770;2022-08-03T07:30:06;37.00;1.00
9527;DHT22;4802;51.494;6.770;2022-08-03T07:32:37;37.20;1.00
9527;DHT22;4802;51.494;6.770;2022-08-03T07:35:16;37.50;1.00
9527;DHT22;4802;51.494;6.770;2022-08-03T07:37:51;37.70;1.00
9527;DHT22;4802;51.494;6.770;2022-08-03T07:40:21;38.00;1.00
9527;DHT22;4802;51.494;6.770;2022-08-03T07:42:57;38.40;1.00
9527;DHT22;4802;51.494;6.770;2022-08-03T07:45:30;38.50;1.00
9527;DHT22;4802;51.494;6.770;2022-08-03T07:48:01;38.20;1.00
9527;DHT22;4802;51.494;6.770;2022-08-03T07:50:38;38.50;1.00
9527;DHT22;4802;51.494;6.770;2022-08-03T07:53:07;38.30;1.00
9527;DHT22;4802;51.494;6.770;2022-08-03T07:55:36;38.60;1.00
9527;DHT22;4802;51.494;6.770;2022-08-03T07:58:07;38.40;1.00
9527;DHT22;4802;51.494;6.770;2022-08-03T08:00:38;38.40;1.00
9527;DHT22;4802;51.494;6.770;2022-08-03T08:03:10;38.30;1.00
9527;DHT22;4802;51.494;6.770;2022-08-03T08:05:40;38.30;1.00
9527;DHT22;4802;51.494;6.770;2022-08-03T08:08:09;38.70;1.00
9527;DHT22;4802;51.494;6.770;2022-08-03T08:10:42;38.80;1.00
9527;DHT22;4802;51.494;6.770;2022-08-03T08:13:24;38.80;1.00
9527;DHT22;4802;51.494;6.770;2022-08-03T08:15:54;38.40;1.00
9527;DHT22;4802;51.494;6.770;2022-08-03T08:18:26;38.60;1.00
9527;DHT22;4802;51.494;6.770;2022-08-03T08:20:57;38.90;1.00
9527;DHT22;4802;51.494;6.770;2022-08-03T08:23:30;39.30;1.00
9527;DHT22;4802;51.494;6.770;2022-08-03T08:26:12;39.20;1.00
9527;DHT22;4802;51.494;6.770;2022-08-03T08:28:41;39.30;1.00
9527;DHT22;4802;51.494;6.770;2022-08-03T08:31:11;39.50;1.00
9527;DHT22;4802;51.494;6.770;2022-08-03T08:33:44;40.20;1.00
9527;DHT22;4802;51.494;6.770;2022-08-03T08:36:31;40.10;1.00
9527;DHT22;4802;51.494;6.770;2022-08-03T08:39:03;39.70;1.00
9527;DHT22;4802;51.494;6.770;2022-08-03T08:41:32;39.70;1.00
9527;DHT22;4802;51.494;6.770;2022-08-03T08:44:02;39.80;1.00
9527;DHT22;4802;51.494;6.770;2022-08-03T08:46:37;39.50;1.00
9527;DHT22;4802;51.494;6.770;2022-08-03T08:49:09;39.60;1.00
9527;DHT22;4802;51.494;6.770;2022-08-03T08:51:40;39.80;1.00
9527;DHT22;4802;51.494;6.770;2022-08-03T08:54:26;39.70;1.00
9527;DHT22;4802;51.494;6.770;2022-08-03T08:57:01;40.00;1.00
9527;DHT22;4802;51.494;6.770;2022-08-03T08:59:51;39.60;1.00
9527;DHT22;4802;51.494;6.770;2022-08-03T09:02:23;39.50;1.00
9527;DHT22;4802;51.494;6.770;2022-08-03T09:04:54;39.60;1.00
9527;DHT22;4802;51.494;6.770;2022-08-03T09:07:29;39.50;1.00
9527;DHT22;4802;51.494;6.770;2022-08-03T09:09:58;39.10;1.00
9527;DHT22;4802;51.494;6.770;2022-08-03T09:12:41;38.80;1.00
9527;DHT22;4802;51.494;6.770;2022-08-03T09:15:20;38.70;1.00
9527;DHT22;4802;51.494;6.770;2022-08-03T09:17:57;38.50;1.00
9527;DHT22;4802;51.494;6.770;2022-08-03T09:20:31;38.40;1.00
9527;DHT22;4802;51.494;6.770;2022-08-03T09:23:04;38.90;1.00
9527;DHT22;4802;51.494;6.770;2022-08-03T09:25:57;39.30;1.00
9527;DHT22;4802;51.494;6.770;2022-08-03T09:28:35;39.10;1.00
9527;DHT22;4802;51.494;6.770;2022-08-03T09:31:30;39.00;1.00
9527;DHT22;4802;51.494;6.770;2022-08-03T09:34:03;39.00;1.00
9527;DHT22;4802;51.494;6.770;2022-08-03T09:36:40;39.00;1.00
9527;DHT22;4802;51.494;6.770;2022-08-03T09:39:11;39.20;1.00
9527;DHT22;4802;51.494;6.770;2022-08-03T09:41:42;39.30;1.00
9527;DHT22;4802;51.494;6.770;2022-08-03T09:44:12;39.50;1.00
9527;DHT22;4802;51.494;6.770;2022-08-03T09:46:53;39.10;1.00
9527;DHT22;4802;51.494;6.770;2022-08-03T09:49:23;38.70;1.00
9527;DHT22;4802;51.494;6.770;2022-08-03T09:51:55;38.10;1.00
9527;DHT22;4802;51.494;6.770;2022-08-03T09:54:50;38.10;1.00
9527;DHT22;4802;51.494;6.770;2022-08-03T09:57:22;38.50;1.00
9527;DHT22;4802;51.494;6.770;2022-08-03T09:59:53;38.40;1.00
9527;DHT22;4802;51.494;6.770;2022-08-03T10:02:32;38.10;1.00
9527;DHT22;4802;51.494;6.770;2022-08-03T10:05:05;37.90;1.00
9527;DHT22;4802;51.494;6.770;2022-08-03T10:07:46;38.30;1.00
9527;DHT22;4802;51.494;6.770;2022-08-03T10:10:21;38.40;1.00
9527;DHT22;4802;51.494;6.770;2022-08-03T10:13:07;38.00;1.00
9527;DHT22;4802;51.494;6.770;2022-08-03T10:15:38;37.40;1.00
9527;DHT22;4802;51.494;6.770;2022-08-03T10:18:30;37.90;1.00
9527;DHT22;4802;51.494;6.770;2022-08-03T10:21:06;37.60;1.00
9527;DHT22;4802;51.494;6.770;2022-08-03T10:23:40;37.60;1.00
9527;DHT22;4802;51.494;6.770;2022-08-03T10:26:14;37.30;1.00
9527;DHT22;4802;51.494;6.770;2022-08-03T10:28:49;37.40;1.00
9527;DHT22;4802;51.494;6.770;2022-08-03T10:31:37;36.90;1.00
9527;DHT22;4802;51.494;6.770;2022-08-03T10:34:28;36.60;1.00
9527;DHT22;4802;51.494;6.770;2022-08-03T10:37:12;36.70;1.00
9527;DHT22;4802;51.494;6.770;2022-08-03T10:40:02;36.00;1.00
9527;DHT22;4802;51.494;6.770;2022-08-03T10:43:09;36.00;1.00
9527;DHT22;4802;51.494;6.770;2022-08-03T10:45:41;36.40;1.00
9527;DHT22;4802;51.494;6.770;2022-08-03T10:48:12;36.20;1.00
9527;DHT22;4802;51.494;6.770;2022-08-03T10:50:43;36.60;1.00
9527;DHT22;4802;51.494;6.770;2022-08-03T10:53:34;36.70;1.00
9527;DHT22;4802;51.494;6.770;2022-08-03T10:59:59;35.70;1.00
9527;DHT22;4802;51.494;6.770;2022-08-03T11:05:53;36.50;1.00
9527;DHT22;4802;51.494;6.770;2022-08-03T11:08:45;36.80;1.00
9527;DHT22;4802;51.494;6.770;2022-08-03T11:11:26;36.60;1.00
9527;DHT22;4802;51.494;6.770;2022-08-03T11:14:00;36.70;1.00
9527;DHT22;4802;51.494;6.770;2022-08-03T11:16:40;36.90;1.00
9527;DHT22;4802;51.494;6.770;2022-08-03T11:19:14;36.70;1.00
9527;DHT22;4802;51.494;6.770;2022-08-03T11:22:05;36.50;1.00
9527;DHT22;4802;51.494;6.770;2022-08-03T11:25:00;36.70;1.00
9527;DHT22;4802;51.494;6.770;2022-08-03T11:28:24;36.80;1.00
9527;DHT22;4802;51.494;6.770;2022-08-03T11:34:21;37.10;1.00
9527;DHT22;4802;51.494;6.770;2022-08-03T11:37:20;37.00;1.00
9527;DHT22;4802;51.494;6.770;2022-08-03T11:39:57;36.80;1.00
9527;DHT22;4802;51.494;6.770;2022-08-03T11:42:44;36.90;1.00
9527;DHT22;4802;51.494;6.770;2022-08-03T11:45:30;36.80;1.00
9527;DHT22;4802;51.494;6.770;2022-08-03T11:48:13;36.60;1.00
9527;DHT22;4802;51.494;6.770;2022-08-03T11:50:54;36.50;1.00
9527;DHT22;4802;51.494;6.770;2022-08-03T11:53:27;36.00;99.90
9527;DHT22;4802;51.494;6.770;2022-08-03T11:56:08;35.90;99.90
9527;DHT22;4802;51.494;6.770;2022-08-03T11:58:45;36.20;1.00
9527;DHT22;4802;51.494;6.770;2022-08-03T12:01:35;36.40;1.00
9527;DHT22;4802;51.494;6.770;2022-08-03T12:04:08;36.10;99.90
9527;DHT22;4802;51.494;6.770;2022-08-03T12:06:40;35.40;99.90
9527;DHT22;4802;51.494;6.770;2022-08-03T12:09:22;35.30;99.90
9527;DHT22;4802;51.494;6.770;2022-08-03T12:11:51;35.10;99.90
9527;DHT22;4802;51.494;6.770;2022-08-03T12:14:27;35.40;99.90
9527;DHT22;4802;51.494;6.770;2022-08-03T12:17:17;35.50;99.90
9527;DHT22;4802;51.494;6.770;2022-08-03T12:19:46;35.20;99.90
9527;DHT22;4802;51.494;6.770;2022-08-03T12:22:30;35.20;99.90
9527;DHT22;4802;51.494;6.770;2022-08-03T12:24:59;35.50;99.90
9527;DHT22;4802;51.494;6.770;2022-08-03T12:27:29;35.80;99.90
9527;DHT22;4802;51.494;6.770;2022-08-03T12:29:59;36.10;99.90
9527;DHT22;4802;51.494;6.770;2022-08-03T12:32:29;36.20;99.90
9527;DHT22;4802;51.494;6.770;2022-08-03T12:34:58;36.30;99.90
9527;DHT22;4802;51.494;6.770;2022-08-03T12:37:34;36.10;99.90
9527;DHT22;4802;51.494;6.770;2022-08-03T12:40:04;35.80;99.90
9527;DHT22;4802;51.494;6.770;2022-08-03T12:42:45;35.70;99.90
9527;DHT22;4802;51.494;6.770;2022-08-03T12:45:18;36.20;99.90
9527;DHT22;4802;51.494;6.770;2022-08-03T12:47:55;36.50;99.90
9527;DHT22;4802;51.494;6.770;2022-08-03T12:50:28;36.40;99.90
9527;DHT22;4802;51.494;6.770;2022-08-03T12:53:08;36.40;99.90
9527;DHT22;4802;51.494;6.770;2022-08-03T12:55:40;35.40;99.90
9527;DHT22;4802;51.494;6.770;2022-08-03T12:58:31;35.00;99.90
9527;DHT22;4802;51.494;6.770;2022-08-03T13:01:03;35.20;99.90
9527;DHT22;4802;51.494;6.770;2022-08-03T13:03:40;35.00;99.90
9527;DHT22;4802;51.494;6.770;2022-08-03T13:06:13;34.80;99.90
9527;DHT22;4802;51.494;6.770;2022-08-03T13:08:45;34.90;99.90
9527;DHT22;4802;51.494;6.770;2022-08-03T13:11:23;34.70;99.90
9527;DHT22;4802;51.494;6.770;2022-08-03T13:14:12;34.60;99.90
9527;DHT22;4802;51.494;6.770;2022-08-03T13:16:46;34.40;99.90
9527;DHT22;4802;51.494;6.770;2022-08-03T13:19:17;34.10;99.90
9527;DHT22;4802;51.494;6.770;2022-08-03T13:21:46;33.90;99.90
9527;DHT22;4802;51.494;6.770;2022-08-03T13:24:32;34.10;99.90
9527;DHT22;4802;51.494;6.770;2022-08-03T13:27:01;34.20;99.90
9527;DHT22;4802;51.494;6.770;2022-08-03T13:29:54;34.40;99.90
9527;DHT22;4802;51.494;6.770;2022-08-03T13:32:25;34.40;99.90
9527;DHT22;4802;51.494;6.770;2022-08-03T13:34:56;34.40;99.90
9527;DHT22;4802;51.494;6.770;2022-08-03T13:37:25;34.30;99.90
9527;DHT22;4802;51.494;6.770;2022-08-03T13:39:57;34.30;99.90
9527;DHT22;4802;51.494;6.770;2022-08-03T13:42:31;34.40;99.90
9527;DHT22;4802;51.494;6.770;2022-08-03T13:45:02;34.50;99.90
9527;DHT22;4802;51.494;6.770;2022-08-03T13:47:34;34.60;99.90
9527;DHT22;4802;51.494;6.770;2022-08-03T13:50:03;34.30;99.90
9527;DHT22;4802;51.494;6.770;2022-08-03T13:52:34;34.40;99.90
9527;DHT22;4802;51.494;6.770;2022-08-03T13:55:06;34.40;99.90
9527;DHT22;4802;51.494;6.770;2022-08-03T13:57:35;34.30;99.90
9527;DHT22;4802;51.494;6.770;2022-08-03T14:00:24;34.20;99.90
9527;DHT22;4802;51.494;6.770;2022-08-03T14:03:00;34.10;99.90
9527;DHT22;4802;51.494;6.770;2022-08-03T14:05:40;34.00;99.90
9527;DHT22;4802;51.494;6.770;2022-08-03T14:08:09;33.60;99.90
9527;DHT22;4802;51.494;6.770;2022-08-03T14:10:42;33.60;99.90
9527;DHT22;4802;51.494;6.770;2022-08-03T14:13:12;33.70;99.90
9527;DHT22;4802;51.494;6.770;2022-08-03T14:15:45;33.70;99.90
9527;DHT22;4802;51.494;6.770;2022-08-03T14:18:17;33.50;99.90
9527;DHT22;4802;51.494;6.770;2022-08-03T14:21:00;33.70;99.90
9527;DHT22;4802;51.494;6.770;2022-08-03T14:23:34;33.80;99.90
9527;DHT22;4802;51.494;6.770;2022-08-03T14:31:23;33.50;99.90
9527;DHT22;4802;51.494;6.770;2022-08-03T14:34:13;33.40;99.90
9527;DHT22;4802;51.494;6.770;2022-08-03T14:36:41;33.40;99.90
9527;DHT22;4802;51.494;6.770;2022-08-03T14:39:11;33.20;99.90
9527;DHT22;4802;51.494;6.770;2022-08-03T14:41:40;33.10;99.90
9527;DHT22;4802;51.494;6.770;2022-08-03T14:44:10;33.00;99.90
9527;DHT22;4802;51.494;6.770;2022-08-03T14:46:42;32.90;99.90
9527;DHT22;4802;51.494;6.770;2022-08-03T14:49:11;32.80;99.90
9527;DHT22;4802;51.494;6.770;2022-08-03T14:52:06;32.80;99.90
9527;DHT22;4802;51.494;6.770;2022-08-03T14:54:38;32.80;99.90
9527;DHT22;4802;51.494;6.770;2022-08-03T14:57:08;32.80;99.90
9527;DHT22;4802;51.494;6.770;2022-08-03T14:59:37;33.00;99.90
9527;DHT22;4802;51.494;6.770;2022-08-03T15:02:24;33.00;99.90
9527;DHT22;4802;51.494;6.770;2022-08-03T15:04:54;33.00;99.90
9527;DHT22;4802;51.494;6.770;2022-08-03T15:07:43;32.70;99.90
9527;DHT22;4802;51.494;6.770;2022-08-03T15:10:17;32.80;99.90
9527;DHT22;4802;51.494;6.770;2022-08-03T15:13:10;32.80;99.90
9527;DHT22;4802;51.494;6.770;2022-08-03T15:15:40;32.90;99.90
9527;DHT22;4802;51.494;6.770;2022-08-03T15:18:12;32.80;99.90
9527;DHT22;4802;51.494;6.770;2022-08-03T15:20:44;32.90;99.90
9527;DHT22;4802;51.494;6.770;2022-08-03T15:23:22;33.00;99.90
9527;DHT22;4802;51.494;6.770;2022-08-03T15:25:52;33.00;99.90
9527;DHT22;4802;51.494;6.770;2022-08-03T15:28:41;33.10;99.90
9527;DHT22;4802;51.494;6.770;2022-08-03T15:31:10;33.10;99.90
9527;DHT22;4802;51.494;6.770;2022-08-03T15:33:50;33.00;99.90
9527;DHT22;4802;51.494;6.770;2022-08-03T15:36:22;33.20;99.90
9527;DHT22;4802;51.494;6.770;2022-08-03T15:38:53;32.90;99.90
9527;DHT22;4802;51.494;6.770;2022-08-03T15:41:23;33.00;99.90
9527;DHT22;4802;51.494;6.770;2022-08-03T15:43:57;33.00;99.90
9527;DHT22;4802;51.494;6.770;2022-08-03T15:46:32;32.80;99.90
9527;DHT22;4802;51.494;6.770;2022-08-03T15:49:04;32.70;99.90
9527;DHT22;4802;51.494;6.770;2022-08-03T15:51:36;32.70;99.90
9527;DHT22;4802;51.494;6.770;2022-08-03T15:54:06;32.50;99.90
9527;DHT22;4802;51.494;6.770;2022-08-03T15:56:38;32.50;99.90
9527;DHT22;4802;51.494;6.770;2022-08-03T15:59:11;32.50;99.90
9527;DHT22;4802;51.494;6.770;2022-08-03T16:01:41;32.30;99.90
9527;DHT22;4802;51.494;6.770;2022-08-03T16:04:11;32.30;99.90
9527;DHT22;4802;51.494;6.770;2022-08-03T16:06:44;32.30;99.90
9527;DHT22;4802;51.494;6.770;2022-08-03T16:09:15;32.10;99.90
9527;DHT22;4802;51.494;6.770;2022-08-03T16:12:05;32.10;99.90
9527;DHT22;4802;51.494;6.770;2022-08-03T16:14:43;32.00;99.90
9527;DHT22;4802;51.494;6.770;2022-08-03T16:17:20;32.00;99.90
9527;DHT22;4802;51.494;6.770;2022-08-03T16:19:55;32.00;99.90
9527;DHT22;4802;51.494;6.770;2022-08-03T16:22:24;32.00;99.90
9527;DHT22;4802;51.494;6.770;2022-08-03T16:24:59;31.80;99.90
9527;DHT22;4802;51.494;6.770;2022-08-03T16:27:44;31.90;99.90
9527;DHT22;4802;51.494;6.770;2022-08-03T16:30:30;31.90;99.90
9527;DHT22;4802;51.494;6.770;2022-08-03T16:32:59;31.90;99.90
9527;DHT22;4802;51.494;6.770;2022-08-03T16:35:30;32.00;99.90
9527;DHT22;4802;51.494;6.770;2022-08-03T16:37:59;31.90;99.90
9527;DHT22;4802;51.494;6.770;2022-08-03T16:40:35;31.90;99.90
9527;DHT22;4802;51.494;6.770;2022-08-03T16:43:10;32.00;99.90
9527;DHT22;4802;51.494;6.770;2022-08-03T16:45:45;32.00;99.90
9527;DHT22;4802;51.494;6.770;2022-08-03T16:48:16;32.00;99.90
9527;DHT22;4802;51.494;6.770;2022-08-03T16:50:46;32.00;99.90
9527;DHT22;4802;51.494;6.770;2022-08-03T16:53:16;31.90;99.90
9527;DHT22;4802;51.494;6.770;2022-08-03T16:56:09;31.90;99.90
9527;DHT22;4802;51.494;6.770;2022-08-03T16:58:38;31.80;99.90
9527;DHT22;4802;51.494;6.770;2022-08-03T17:01:11;31.70;99.90
9527;DHT22;4802;51.494;6.770;2022-08-03T17:03:52;31.70;99.90
9527;DHT22;4802;51.494;6.770;2022-08-03T17:06:34;31.80;99.90
9527;DHT22;4802;51.494;6.770;2022-08-03T17:09:14;31.80;99.90
9527;DHT22;4802;51.494;6.770;2022-08-03T17:11:48;31.70;99.90
9527;DHT22;4802;51.494;6.770;2022-08-03T17:14:19;31.70;99.90
9527;DHT22;4802;51.494;6.770;2022-08-03T17:16:57;31.60;99.90